Flight Track Log - Related Links

Times and Time Zones

All times are in EDT time to prevent confusion due to time zone crossing. See the N5349M flight status page for this flight to view local times or setup timezone preferences in your user account.

Time Position Orientation Groundspeed Altitude Reporting Facility
EDT Latitude Longitude Course Direction KTS MPH feet Rate Location/Type
Sat 09:31:42 AM 36.0667 -86.7500 85° East 130 150 5,700  Level Nashville TRACON
Sat 09:32:42 AM 36.0667 -86.7167 90° East 131 151 6,200 450 Climbing Nashville TRACON
Sat 09:33:42 AM 36.0833 -86.6667 68° East 136 157 6,600 450 Climbing Nashville TRACON
Sat 09:34:42 AM 36.0833 -86.6167 90° East 141 162 7,100 400 Climbing Nashville TRACON
Sat 09:35:42 AM 36.0833 -86.5667 90° East 147 169 7,400 263 Climbing Nashville TRACON
Sat 09:36:36 AM 36.0833 -86.5167 90° East 154 177 7,600 105 Climbing Nashville TRACON
Sat 09:37:00 AM 36.2105 -86.4598 85° East  Level Estimated
Sat 09:37:36 AM 36.1000 -86.4667 68° East 158 182 7,600  Level Nashville TRACON
Sat 09:38:36 AM 36.1000 -86.4167 90° East 157 181 7,600 -50 Level Nashville TRACON
Sat 09:39:36 AM 36.1000 -86.3667 90° East 157 181 7,500 -50 Descending Nashville TRACON
Sat 09:40:36 AM 36.1000 -86.3167 90° East 159 183 7,500  Level Nashville TRACON
Sat 09:41:36 AM 36.1167 -86.2500 73° East 158 182 7,500  Level Nashville TRACON
Sat 09:42:36 AM 36.1167 -86.2000 90° East 158 182 7,500  Level Nashville TRACON
Sat 09:43:48 AM 36.1203 -86.1456 85° East 179 206 7,500 -45 Level Memphis Center
Sat 09:44:48 AM 36.1269 -86.0939 81° East 174 200 7,400  Descending Memphis Center
Sat 09:45:48 AM 36.1314 -86.0372 84° East 160 184 7,500  Climbing Memphis Center
Sat 09:46:48 AM 36.1358 -85.9856 84° East 160 184 7,400  Descending Memphis Center
Sat 09:47:48 AM 36.1400 -85.9314 85° East 160 184 7,500  Climbing Memphis Center
Sat 09:48:48 AM 36.1444 -85.8772 84° East 160 184 7,400  Descending Memphis Center
Sat 09:49:48 AM 36.1506 -85.8150 83° East 160 184 7,500 50 Climbing Memphis Center
Sat 09:50:48 AM 36.1547 -85.7608 85° East 160 184 7,500  Level Memphis Center
Sat 09:51:48 AM 36.1589 -85.7092 84° East 160 184 7,500  Level Memphis Center
Sat 09:52:48 AM 36.1631 -85.6525 85° East 160 184 7,500  Level Memphis Center
Sat 09:54:57 AM 36.1722 -85.5433 84° East 161 185 7,500  Level Atlanta Center
Sat 09:55:57 AM 36.1769 -85.4894 84° East 161 185 7,500  Level Atlanta Center
Sat 09:56:57 AM 36.1817 -85.4331 84° East 161 185 7,500  Level Atlanta Center
Sat 09:57:57 AM 36.1867 -85.3792 83° East 161 185 7,500  Level Atlanta Center
Sat 09:58:57 AM 36.1892 -85.3250 87° East 161 185 7,500  Level Atlanta Center
Sat 09:59:57 AM 36.1939 -85.2711 84° East 161 185 7,500  Level Atlanta Center
Sat 10:00:57 AM 36.1986 -85.2172 84° East 161 185 7,500  Level Atlanta Center
Sat 10:01:57 AM 36.2014 -85.1631 86° East 161 185 7,500  Level Atlanta Center
Sat 10:02:57 AM 36.2058 -85.1092 84° East 161 185 7,500  Level Atlanta Center
Sat 10:03:57 AM 36.2083 -85.0578 87° East 161 185 7,500  Level Atlanta Center
Sat 10:04:57 AM 36.2150 -85.0039 81° East 161 185 7,500  Level Atlanta Center
Sat 10:05:57 AM 36.2175 -84.9497 87° East 161 185 7,500  Level Atlanta Center
Sat 10:06:57 AM 36.2222 -84.8906 84° East 161 185 7,500  Level Atlanta Center
Sat 10:07:57 AM 36.2289 -84.8367 81° East 161 185 7,500  Level Atlanta Center
Sat 10:08:57 AM 36.2333 -84.7800 84° East 161 185 7,500  Level Atlanta Center
Sat 10:09:57 AM 36.2358 -84.7261 87° East 161 185 7,500  Level Atlanta Center
Sat 10:10:57 AM 36.2403 -84.6719 84° East 161 185 7,500  Level Atlanta Center
Sat 10:11:57 AM 36.2447 -84.6153 84° East 161 185 7,500  Level Atlanta Center
Sat 10:12:57 AM 36.2469 -84.5614 87° East 161 185 7,500 50 Level Atlanta Center
Sat 10:13:57 AM 36.2514 -84.5072 84° East 161 185 7,600 50 Climbing Atlanta Center
Sat 10:14:57 AM 36.2558 -84.4533 84° East 161 185 7,600  Level Atlanta Center
Sat 10:15:57 AM 36.2600 -84.3967 85° East 161 185 7,600  Level Atlanta Center
Sat 10:16:57 AM 36.2644 -84.3375 85° East 161 185 7,600  Level Atlanta Center
Sat 10:17:57 AM 36.2686 -84.2833 85° East 161 185 7,600  Level Atlanta Center
Sat 10:18:57 AM 36.2731 -84.2267 84° East 161 185 7,600  Level Atlanta Center
Sat 10:19:57 AM 36.2772 -84.1725 85° East 161 185 7,600  Level Atlanta Center
Sat 10:21:00 AM 36.2788 -84.1194 88° East  Level FlightAware Approximate
Sat 10:28:00 AM 36.2890 -83.7651 88° East  Level FlightAware Approximate
Sat 10:29:00 AM 36.2904 -83.7145 88° East  Level FlightAware Approximate
Sat 10:30:00 AM 36.2917 -83.6639 88° East  Level FlightAware Approximate
Sat 10:31:00 AM 36.2931 -83.6133 88° East  Level FlightAware Approximate
Sat 10:32:00 AM 36.2944 -83.5627 88° East  Level FlightAware Approximate
Sat 10:33:00 AM 36.2956 -83.5120 88° East  Level FlightAware Approximate
Sat 10:34:00 AM 36.2969 -83.4614 88° East  Level FlightAware Approximate
Sat 10:35:00 AM 36.2981 -83.4108 88° East  Level FlightAware Approximate
Sat 10:36:00 AM 36.2994 -83.3602 88° East  Level FlightAware Approximate
Sat 10:37:00 AM 36.3021 -83.3078 84° East  Level FlightAware Approximate
Sat 10:38:00 AM 36.3061 -83.2574 84° East  Level FlightAware Approximate
Sat 10:39:00 AM 36.3101 -83.2070 84° East  Level FlightAware Approximate
Sat 10:40:00 AM 36.3141 -83.1566 84° East  Level FlightAware Approximate
Sat 10:41:00 AM 36.3181 -83.1062 84° East  Level FlightAware Approximate
Sat 10:42:00 AM 36.3220 -83.0557 84° East  Level FlightAware Approximate
Sat 10:43:00 AM 36.3259 -83.0053 84° East  Level FlightAware Approximate
Sat 10:44:00 AM 36.3298 -82.9549 84° East  Level FlightAware Approximate
Sat 10:45:00 AM 36.3337 -82.9044 85° East  Level FlightAware Approximate
Sat 10:46:00 AM 36.3376 -82.8540 85° East  Level FlightAware Approximate
Sat 10:47:00 AM 36.3414 -82.8035 85° East  Level FlightAware Approximate
Sat 10:48:00 AM 36.3452 -82.7531 85° East  Level FlightAware Approximate
Sat 10:49:00 AM 36.3490 -82.7026 85° East  Level FlightAware Approximate
Sat 10:50:00 AM 36.3528 -82.6521 85° East  Level FlightAware Approximate
Sat 10:51:00 AM 36.3566 -82.6017 85° East  Level FlightAware Approximate
Sat 10:52:00 AM 36.3603 -82.5512 85° East  Level FlightAware Approximate
Sat 10:53:00 AM 36.3640 -82.5007 85° East  Level FlightAware Approximate
Sat 10:54:00 AM 36.3677 -82.4502 85° East  Level FlightAware Approximate
Sat 10:55:00 AM 36.3714 -82.3997 85° East  Level FlightAware Approximate
Sat 10:56:00 AM 36.3750 -82.3493 85° East  Level FlightAware Approximate
Sat 10:57:00 AM 36.3787 -82.2988 85° East  Level FlightAware Approximate
Sat 10:58:00 AM 36.3823 -82.2483 85° East  Level FlightAware Approximate
Sat 10:59:00 AM 36.3861 -82.1978 84° East  Level FlightAware Approximate
Sat 11:00:00 AM 36.3900 -82.1473 84° East  Level FlightAware Approximate
Sat 11:01:00 AM 36.3939 -82.0968 85° East  Level FlightAware Approximate
Sat 11:02:00 AM 36.3977 -82.0463 85° East  Level FlightAware Approximate
Sat 11:03:00 AM 36.4017 -81.9959 84° East  Level FlightAware Approximate
Sat 11:04:00 AM 36.4060 -81.9454 84° East  Level FlightAware Approximate
Sat 11:05:00 AM 36.4102 -81.8950 84° East  Level FlightAware Approximate

Login

Don't have an account? Register now (free) for customized features, flight alerts, and more!